Time;durP1;ratioP1;P1;durP2;ratioP2;P2;SDS_P1;SDS_P2;PMS_P1;PMS_P2;Temp;Humidity;BMP_temperature;BMP_pressure;BME280_temperature;BME280_humidity;BME280_pressure;Samples;Min_cycle;Max_cycle;Signal;HPM_P1;HPM_P2
2021/07/26 00:00:51;;;;;;;2.30;1.17;;;17.40;99.90;;;;;;5052752;28;20462;-80
2021/07/26 00:03:19;;;;;;;1.17;1.07;;;17.40;99.90;;;;;;5052821;28;20972;-80
2021/07/26 00:05:54;;;;;;;1.47;0.93;;;17.30;99.90;;;;;;5053079;28;20450;-80
2021/07/26 00:08:22;;;;;;;1.20;0.80;;;17.30;99.90;;;;;;5052654;28;20410;-80
2021/07/26 00:10:49;;;;;;;1.10;1.10;;;17.30;99.90;;;;;;5053068;28;20505;-80
2021/07/26 00:13:16;;;;;;;1.43;1.33;;;17.30;99.90;;;;;;5052959;28;20449;-80
2021/07/26 00:15:42;;;;;;;1.70;1.27;;;17.30;99.90;;;;;;5052960;28;20461;-80
2021/07/26 00:18:09;;;;;;;0.80;0.70;;;17.30;99.90;;;;;;5052869;28;20489;-80
2021/07/26 00:20:37;;;;;;;0.70;0.70;;;17.30;99.90;;;;;;5052631;28;20829;-80
2021/07/26 00:23:04;;;;;;;1.77;1.30;;;17.30;99.90;;;;;;5052629;28;20442;-80
2021/07/26 00:25:31;;;;;;;2.50;0.80;;;17.30;99.90;;;;;;5052877;28;20445;-80
2021/07/26 00:27:58;;;;;;;1.20;0.90;;;17.30;99.90;;;;;;5052836;28;20454;-80
2021/07/26 00:30:24;;;;;;;1.90;0.83;;;17.30;99.90;;;;;;5052774;28;20795;-80
2021/07/26 00:32:51;;;;;;;0.70;0.70;;;17.30;99.90;;;;;;5052555;28;20536;-80
2021/07/26 00:35:18;;;;;;;0.97;0.70;;;17.30;99.90;;;;;;5052564;28;20430;-80
2021/07/26 00:37:46;;;;;;;1.83;0.97;;;17.30;99.90;;;;;;5055349;28;20445;-80
2021/07/26 00:40:13;;;;;;;1.67;1.00;;;17.30;99.90;;;;;;5056429;28;20466;-80
2021/07/26 00:42:40;;;;;;;0.77;0.60;;;17.30;99.90;;;;;;5056575;28;20446;-80
2021/07/26 00:45:08;;;;;;;2.10;1.43;;;17.30;99.90;;;;;;5056471;28;20445;-80
2021/07/26 00:47:34;;;;;;;3.33;1.43;;;17.30;99.90;;;;;;5056466;28;20441;-80
2021/07/26 00:50:01;;;;;;;0.60;0.60;;;17.20;99.90;;;;;;5056018;28;20916;-80
2021/07/26 00:52:28;;;;;;;1.43;1.10;;;17.20;99.90;;;;;;5056364;28;20453;-80
2021/07/26 00:54:57;;;;;;;1.30;0.80;;;17.20;99.90;;;;;;5056339;28;20438;-80
2021/07/26 00:57:24;;;;;;;2.20;0.83;;;17.20;99.90;;;;;;5056018;28;20442;-80
2021/07/26 00:59:52;;;;;;;1.03;0.50;;;17.20;99.90;;;;;;5055745;28;21026;-80
2021/07/26 01:02:19;;;;;;;0.60;0.60;;;17.20;99.90;;;;;;5055906;28;20430;-80
2021/07/26 01:04:46;;;;;;;0.90;0.80;;;17.20;99.90;;;;;;5056105;28;20449;-80
2021/07/26 01:07:13;;;;;;;0.90;0.70;;;17.20;99.90;;;;;;5056920;28;20807;-79
2021/07/26 01:09:39;;;;;;;1.50;1.00;;;17.20;99.90;;;;;;5055594;28;20477;-78
2021/07/26 01:12:08;;;;;;;1.07;0.70;;;17.20;99.90;;;;;;5056009;28;20789;-80
2021/07/26 01:14:36;;;;;;;1.20;0.80;;;17.20;99.90;;;;;;5055678;28;20430;-81
2021/07/26 01:17:03;;;;;;;0.80;0.80;;;17.20;99.90;;;;;;5055894;28;20450;-78
2021/07/26 01:19:29;;;;;;;0.70;0.60;;;17.20;99.90;;;;;;5055514;28;20581;-79
2021/07/26 01:21:58;;;;;;;1.43;0.90;;;17.20;99.90;;;;;;5055753;28;20508;-79
2021/07/26 01:24:25;;;;;;;1.57;0.70;;;17.20;99.90;;;;;;5055787;28;20500;-79
2021/07/26 01:26:52;;;;;;;1.03;0.80;;;17.20;99.90;;;;;;5055706;28;20512;-79
2021/07/26 01:29:21;;;;;;;1.00;0.70;;;17.20;99.90;;;;;;5055538;28;20449;-79
2021/07/26 01:31:48;;;;;;;0.90;0.90;;;17.20;99.90;;;;;;5055638;28;20453;-81
2021/07/26 01:34:15;;;;;;;1.63;0.87;;;17.10;99.90;;;;;;5055578;28;20461;-81
2021/07/26 01:36:41;;;;;;;0.77;0.73;;;17.20;99.90;;;;;;5055244;28;20952;-79
2021/07/26 01:39:10;;;;;;;0.87;0.77;;;17.10;99.90;;;;;;5055362;28;20477;-80
2021/07/26 01:41:36;;;;;;;0.70;0.70;;;17.10;99.90;;;;;;5055143;28;20824;-81
2021/07/26 01:44:07;;;;;;;1.50;1.40;;;17.10;99.90;;;;;;5055374;28;20545;-79
2021/07/26 01:46:52;;;;;;;2.73;1.23;;;17.10;99.90;;;;;;5055308;28;20434;-79
2021/07/26 01:49:31;;;;;;;1.00;0.70;;;17.10;99.90;;;;;;5055275;28;20418;-81
2021/07/26 01:51:58;;;;;;;1.23;0.93;;;17.10;99.90;;;;;;5055618;28;20418;-79
2021/07/26 01:54:27;;;;;;;4.73;1.23;;;17.10;99.90;;;;;;5054891;28;20453;-79
2021/07/26 01:56:54;;;;;;;1.43;1.00;;;17.10;99.90;;;;;;5055207;28;20465;-79
2021/07/26 01:59:20;;;;;;;1.13;0.97;;;17.10;99.90;;;;;;5054987;28;20835;-78
2021/07/26 02:01:47;;;;;;;0.87;0.87;;;17.10;99.90;;;;;;5054843;28;20466;-79
2021/07/26 02:04:14;;;;;;;3.33;1.63;;;17.10;99.90;;;;;;5054993;28;20442;-79
2021/07/26 02:06:41;;;;;;;1.40;0.90;;;17.10;99.90;;;;;;5054613;28;20508;-81
2021/07/26 02:09:08;;;;;;;1.13;1.03;;;17.10;99.90;;;;;;5054573;28;20481;-81
2021/07/26 02:11:36;;;;;;;0.90;0.70;;;17.10;99.90;;;;;;5054558;28;20941;-81
2021/07/26 02:14:08;;;;;;;2.50;0.70;;;17.10;99.90;;;;;;5054754;28;20438;-79
2021/07/26 02:16:36;;;;;;;1.30;1.00;;;17.10;99.90;;;;;;5055062;28;20442;-79
2021/07/26 02:19:02;;;;;;;0.60;0.60;;;17.10;99.90;;;;;;5054665;28;20486;-79
2021/07/26 02:21:29;;;;;;;3.50;2.17;;;17.10;99.90;;;;;;5054438;28;20437;-79
2021/07/26 02:23:56;;;;;;;1.27;0.97;;;17.00;99.90;;;;;;5054578;28;20454;-79
2021/07/26 02:26:23;;;;;;;0.83;0.60;;;17.00;99.90;;;;;;5054449;28;20461;-79
2021/07/26 02:28:51;;;;;;;1.20;0.77;;;17.00;99.90;;;;;;5054514;28;20453;-79
2021/07/26 02:31:17;;;;;;;1.43;0.80;;;17.00;99.90;;;;;;5054392;28;20476;-79
2021/07/26 02:33:44;;;;;;;0.80;0.60;;;17.00;99.90;;;;;;5054138;28;20446;-79
2021/07/26 02:36:11;;;;;;;1.37;1.27;;;17.00;99.90;;;;;;5054246;28;20454;-79
2021/07/26 02:38:38;;;;;;;2.20;1.30;;;17.00;99.90;;;;;;5054268;28;20485;-79
2021/07/26 02:41:10;;;;;;;1.53;1.43;;;16.90;99.90;;;;;;5054256;28;20470;-79
2021/07/26 02:43:37;;;;;;;1.27;0.70;;;16.90;99.90;;;;;;5054319;28;20430;-79
2021/07/26 02:46:06;;;;;;;2.50;1.03;;;16.90;99.90;;;;;;5054244;28;20450;-79
2021/07/26 02:48:32;;;;;;;2.40;1.20;;;16.90;99.90;;;;;;5053891;28;20450;-79
2021/07/26 02:50:59;;;;;;;1.27;0.90;;;16.90;99.90;;;;;;5054042;28;20477;-79
2021/07/26 02:53:26;;;;;;;2.17;0.80;;;16.90;99.90;;;;;;5053764;28;20941;-79
2021/07/26 02:55:53;;;;;;;0.90;0.67;;;16.90;99.90;;;;;;5053797;28;20434;-80
2021/07/26 02:58:20;;;;;;;1.00;0.90;;;16.90;99.90;;;;;;5053725;28;20450;-79
2021/07/26 03:00:48;;;;;;;0.90;0.90;;;16.90;99.90;;;;;;5053356;28;20521;-79
2021/07/26 03:03:16;;;;;;;1.13;0.70;;;16.90;99.90;;;;;;5053559;28;20825;-79
2021/07/26 03:05:43;;;;;;;2.60;1.20;;;16.80;99.90;;;;;;5053527;28;20452;-79
2021/07/26 03:08:11;;;;;;;1.03;0.97;;;16.80;99.90;;;;;;5053614;28;20446;-80
2021/07/26 03:10:37;;;;;;;1.53;0.87;;;16.80;99.90;;;;;;5053854;28;20811;-79
2021/07/26 03:13:04;;;;;;;0.77;0.70;;;16.80;99.90;;;;;;5053468;28;20804;-79
2021/07/26 03:15:31;;;;;;;1.10;0.80;;;16.80;99.90;;;;;;5053652;28;20450;-79
2021/07/26 03:17:58;;;;;;;2.00;0.60;;;16.90;99.90;;;;;;5053637;28;20454;-79
2021/07/26 03:20:26;;;;;;;1.80;0.80;;;16.90;99.90;;;;;;5053207;28;20511;-79
2021/07/26 03:23:03;;;;;;;2.17;1.23;;;16.90;99.90;;;;;;5053551;28;20433;-79
2021/07/26 03:25:31;;;;;;;2.53;1.10;;;16.90;99.90;;;;;;5053567;28;20445;-78
2021/07/26 03:27:59;;;;;;;0.97;0.87;;;16.90;99.90;;;;;;5053519;28;20446;-78
2021/07/26 03:30:27;;;;;;;2.70;1.47;;;16.90;99.90;;;;;;5053362;28;20466;-78
2021/07/26 03:32:54;;;;;;;1.73;0.97;;;16.80;99.90;;;;;;5053759;28;20791;-79
2021/07/26 03:35:22;;;;;;;1.07;0.97;;;16.80;99.90;;;;;;5053132;28;20440;-79
2021/07/26 03:37:51;;;;;;;1.20;0.73;;;16.90;99.90;;;;;;5053372;28;20456;-78
2021/07/26 03:40:18;;;;;;;2.73;1.00;;;16.90;99.90;;;;;;5053197;28;20485;-79
2021/07/26 03:42:46;;;;;;;1.27;0.63;;;16.90;99.90;;;;;;5053293;28;20456;-79
2021/07/26 03:45:14;;;;;;;0.50;0.50;;;16.80;99.90;;;;;;5053277;28;20464;-79
2021/07/26 03:47:42;;;;;;;1.17;0.80;;;16.90;99.90;;;;;;5052981;28;20446;-79
2021/07/26 03:50:11;;;;;;;1.73;1.00;;;16.90;99.90;;;;;;5053142;28;20466;-79
2021/07/26 03:52:45;;;;;;;1.80;1.07;;;16.90;99.90;;;;;;5053195;28;20434;-79
2021/07/26 03:55:17;;;;;;;0.50;0.50;;;16.90;99.90;;;;;;5053157;28;20444;-78
2021/07/26 03:57:44;;;;;;;1.43;0.60;;;17.00;99.90;;;;;;5053223;28;20503;-79
2021/07/26 04:00:13;;;;;;;1.03;0.83;;;17.00;99.90;;;;;;5053008;28;20489;-78
2021/07/26 04:02:40;;;;;;;2.47;0.80;;;17.00;99.90;;;;;;5053119;28;20536;-78
2021/07/26 04:05:12;;;;;;;1.13;1.03;;;17.00;99.90;;;;;;5052776;28;20449;-79
2021/07/26 04:07:40;;;;;;;1.23;1.00;;;17.00;99.90;;;;;;5053060;28;20496;-79
2021/07/26 04:10:09;;;;;;;1.73;0.80;;;17.00;99.90;;;;;;5052894;28;20490;-79
2021/07/26 04:12:38;;;;;;;0.80;0.67;;;17.00;99.90;;;;;;5057094;28;20815;-79
2021/07/26 04:15:10;;;;;;;0.70;0.70;;;17.00;99.90;;;;;;5057061;28;20457;-80
2021/07/26 04:17:37;;;;;;;1.33;0.83;;;17.00;99.90;;;;;;5057838;28;20537;-79
2021/07/26 04:20:04;;;;;;;0.60;0.60;;;17.00;99.90;;;;;;5056811;28;20496;-79
2021/07/26 04:22:31;;;;;;;0.60;0.60;;;17.00;99.90;;;;;;5056937;28;20444;-79
2021/07/26 04:24:58;;;;;;;1.23;0.70;;;17.00;99.90;;;;;;5056973;28;20449;-79
2021/07/26 04:27:26;;;;;;;0.83;0.60;;;17.00;99.90;;;;;;5056596;28;20917;-79
2021/07/26 04:29:54;;;;;;;0.80;0.70;;;17.00;99.90;;;;;;5056752;28;20461;-79
2021/07/26 04:32:21;;;;;;;0.63;0.60;;;17.00;99.90;;;;;;5056742;28;20457;-79
2021/07/26 04:34:48;;;;;;;1.77;1.43;;;17.00;99.90;;;;;;5056714;28;20455;-79
2021/07/26 04:37:15;;;;;;;1.10;0.80;;;17.00;99.90;;;;;;5056338;28;20821;-79
2021/07/26 04:39:41;;;;;;;0.63;0.60;;;17.00;99.90;;;;;;5056482;28;20481;-79
2021/07/26 04:42:08;;;;;;;1.73;1.17;;;17.00;99.90;;;;;;5056294;28;20434;-79
2021/07/26 04:44:36;;;;;;;1.03;0.57;;;17.10;99.90;;;;;;5056516;28;20450;-79
2021/07/26 04:47:05;;;;;;;2.30;0.87;;;17.10;99.90;;;;;;5056484;28;20504;-79
2021/07/26 04:49:32;;;;;;;2.00;0.53;;;17.10;99.90;;;;;;5056348;28;20458;-79
2021/07/26 04:51:58;;;;;;;0.90;0.63;;;17.10;99.90;;;;;;5056062;28;20977;-79
2021/07/26 04:54:25;;;;;;;0.93;0.73;;;17.10;99.90;;;;;;5056321;28;20453;-79
2021/07/26 04:56:52;;;;;;;1.33;0.90;;;17.10;99.90;;;;;;5056001;28;20456;-79
2021/07/26 04:59:18;;;;;;;1.10;0.80;;;17.10;99.90;;;;;;5056127;28;20481;-79
2021/07/26 05:01:45;;;;;;;0.90;0.60;;;17.10;99.90;;;;;;5056193;28;20446;-79
2021/07/26 05:04:13;;;;;;;1.57;1.30;;;17.10;99.90;;;;;;5056156;28;20450;-79
2021/07/26 05:06:40;;;;;;;1.33;1.23;;;17.10;99.90;;;;;;5056082;28;20441;-80
2021/07/26 05:09:07;;;;;;;1.27;0.90;;;17.00;99.90;;;;;;5055671;28;20855;-79
2021/07/26 05:11:33;;;;;;;1.03;0.90;;;17.10;99.90;;;;;;5056037;28;20457;-79
2021/07/26 05:14:00;;;;;;;1.17;1.07;;;17.10;99.90;;;;;;5055970;28;20449;-79
2021/07/26 05:16:27;;;;;;;1.07;0.77;;;17.00;99.90;;;;;;5055630;28;20937;-79
2021/07/26 05:18:54;;;;;;;0.73;0.70;;;17.10;99.90;;;;;;5055891;28;20446;-79
2021/07/26 05:21:22;;;;;;;1.00;0.90;;;17.10;99.90;;;;;;5055605;28;20489;-79
2021/07/26 05:23:49;;;;;;;0.90;0.60;;;17.20;99.90;;;;;;5055029;28;20453;-79
2021/07/26 05:26:16;;;;;;;1.10;1.00;;;17.30;99.90;;;;;;5055747;28;20457;-79
2021/07/26 05:28:42;;;;;;;1.50;0.97;;;17.40;99.90;;;;;;5055346;28;20989;-79
2021/07/26 05:31:09;;;;;;;1.00;1.00;;;17.50;99.90;;;;;;5055510;28;20469;-79
2021/07/26 05:33:36;;;;;;;2.20;1.20;;;17.60;99.90;;;;;;5055295;28;20449;-79
2021/07/26 05:36:02;;;;;;;1.27;0.60;;;17.60;99.90;;;;;;5055306;28;20933;-79
2021/07/26 05:38:31;;;;;;;1.00;0.90;;;17.60;99.90;;;;;;5055542;28;20528;-79
2021/07/26 05:40:58;;;;;;;1.10;0.83;;;17.60;99.90;;;;;;5055322;28;20480;-79
2021/07/26 05:43:25;;;;;;;2.13;1.10;;;17.60;99.90;;;;;;5055369;28;20438;-79
2021/07/26 05:45:52;;;;;;;1.23;1.00;;;17.70;99.90;;;;;;5055400;28;20426;-79
2021/07/26 05:48:18;;;;;;;1.33;1.07;;;17.70;99.90;;;;;;5055312;28;20454;-79
2021/07/26 05:50:45;;;;;;;2.90;1.10;;;17.80;99.90;;;;;;5055364;28;20841;-79
2021/07/26 05:53:12;;;;;;;1.00;0.90;;;17.80;99.90;;;;;;5055206;28;20446;-79
2021/07/26 05:55:40;;;;;;;1.43;0.80;;;17.90;99.90;;;;;;5054963;28;20921;-79
2021/07/26 05:58:07;;;;;;;2.07;1.20;;;17.90;99.90;;;;;;5054819;28;20940;-79
2021/07/26 06:00:41;;;;;;;1.40;0.93;;;18.00;99.90;;;;;;5054906;28;20478;-79
2021/07/26 06:03:07;;;;;;;1.43;0.90;;;18.10;99.90;;;;;;5055070;28;20433;-79
2021/07/26 06:05:34;;;;;;;1.23;0.77;;;18.20;99.90;;;;;;5054995;28;20784;-79
2021/07/26 06:08:01;;;;;;;1.53;0.90;;;18.20;99.90;;;;;;5054935;28;20449;-79
2021/07/26 06:10:27;;;;;;;1.07;0.60;;;18.30;99.90;;;;;;5054476;28;20485;-79
2021/07/26 06:12:56;;;;;;;2.47;0.70;;;18.40;99.90;;;;;;5054892;28;20477;-79
2021/07/26 06:15:23;;;;;;;0.70;0.70;;;18.50;99.90;;;;;;5054674;28;20462;-79
2021/07/26 06:17:49;;;;;;;1.37;0.80;;;18.60;99.90;;;;;;5054787;28;20450;-79
2021/07/26 06:20:17;;;;;;;1.10;0.70;;;18.70;99.90;;;;;;5054537;28;20490;-80
2021/07/26 06:22:43;;;;;;;1.27;1.03;;;18.70;99.90;;;;;;5054521;28;20979;-79
2021/07/26 06:25:12;;;;;;;0.87;0.80;;;18.80;99.90;;;;;;5054613;28;20446;-80
2021/07/26 06:27:39;;;;;;;0.60;0.60;;;18.80;99.90;;;;;;5054664;28;20456;-80
2021/07/26 06:30:09;;;;;;;1.40;0.80;;;19.00;99.90;;;;;;5054513;28;20469;-80
2021/07/26 06:32:36;;;;;;;1.20;0.70;;;19.00;99.90;;;;;;5054542;28;20419;-80
2021/07/26 06:35:03;;;;;;;1.10;0.80;;;19.20;99.90;;;;;;5054453;28;20442;-80
2021/07/26 06:37:30;;;;;;;1.13;0.63;;;19.30;99.90;;;;;;5054441;28;20438;-80
2021/07/26 06:39:57;;;;;;;1.17;1.07;;;19.50;99.90;;;;;;5053954;28;21058;-80
2021/07/26 06:42:24;;;;;;;0.80;0.50;;;19.60;99.90;;;;;;5054349;28;20893;-79
2021/07/26 06:44:50;;;;;;;0.80;0.60;;;19.70;99.90;;;;;;5054218;28;20414;-79
2021/07/26 06:47:19;;;;;;;0.67;0.67;;;19.80;99.90;;;;;;5054235;28;20434;-79
2021/07/26 06:49:45;;;;;;;3.30;0.73;;;20.00;99.90;;;;;;5053809;28;21011;-79
2021/07/26 06:52:12;;;;;;;0.80;0.50;;;20.10;99.90;;;;;;5054115;28;20450;-80
2021/07/26 06:54:39;;;;;;;0.80;0.80;;;20.20;99.90;;;;;;5053747;28;21003;-80
2021/07/26 06:57:06;;;;;;;1.23;0.50;;;20.20;99.90;;;;;;5054057;28;20445;-79
2021/07/26 06:59:33;;;;;;;1.03;0.73;;;20.20;99.90;;;;;;5053569;28;20818;-79
2021/07/26 07:01:59;;;;;;;0.80;0.80;;;20.30;99.90;;;;;;5053653;28;20469;-80
2021/07/26 07:04:28;;;;;;;1.17;0.90;;;20.40;99.90;;;;;;5053897;28;20449;-79
2021/07/26 07:06:54;;;;;;;1.07;0.97;;;20.60;99.90;;;;;;5053941;28;20445;-80
2021/07/26 07:09:21;;;;;;;0.97;0.70;;;20.70;99.90;;;;;;5053320;28;20496;-80
2021/07/26 07:11:48;;;;;;;0.50;0.50;;;20.80;99.90;;;;;;5053346;28;20948;-79
2021/07/26 07:14:16;;;;;;;0.83;0.60;;;21.00;99.90;;;;;;5054371;28;20452;-80
2021/07/26 07:16:43;;;;;;;0.70;0.57;;;21.10;99.90;;;;;;5053563;28;20901;-80
2021/07/26 07:19:10;;;;;;;1.60;0.73;;;21.10;99.90;;;;;;5053605;28;20456;-80
2021/07/26 07:21:38;;;;;;;0.70;0.60;;;21.30;99.90;;;;;;5053337;28;20472;-79
2021/07/26 07:24:06;;;;;;;0.90;0.60;;;21.50;99.90;;;;;;5053264;28;20890;-81
2021/07/26 07:26:33;;;;;;;1.40;0.93;;;21.60;99.90;;;;;;5053209;28;20924;-80
2021/07/26 07:29:00;;;;;;;1.03;0.53;;;21.60;99.90;;;;;;5053545;28;20445;-80
2021/07/26 07:31:27;;;;;;;0.50;0.50;;;21.60;99.90;;;;;;5053366;28;20462;-80
2021/07/26 07:33:56;;;;;;;1.97;0.73;;;21.70;99.90;;;;;;5053825;28;20445;-81
2021/07/26 07:36:23;;;;;;;0.70;0.60;;;21.70;99.90;;;;;;5053498;28;20457;-80
2021/07/26 07:38:52;;;;;;;0.73;0.53;;;21.80;99.90;;;;;;5053516;28;20449;-80
2021/07/26 07:41:19;;;;;;;0.97;0.80;;;21.90;99.90;;;;;;5053271;28;20481;-81
2021/07/26 07:43:50;;;;;;;1.23;0.90;;;22.00;99.90;;;;;;5053428;28;20434;-81
2021/07/26 07:46:17;;;;;;;1.07;0.70;;;22.10;99.90;;;;;;5053044;28;20466;-81
2021/07/26 07:48:44;;;;;;;1.20;0.70;;;22.20;99.90;;;;;;5053171;28;20501;-80
2021/07/26 07:51:11;;;;;;;0.73;0.63;;;22.30;99.90;;;;;;5053138;28;20456;-80
2021/07/26 07:53:38;;;;;;;0.80;0.73;;;22.30;99.90;;;;;;5053242;28;20560;-80
2021/07/26 07:56:06;;;;;;;0.90;0.90;;;22.50;99.90;;;;;;5053224;28;20445;-80
2021/07/26 07:58:35;;;;;;;1.27;0.83;;;22.80;99.90;;;;;;5053001;28;20816;-80
2021/07/26 08:01:02;;;;;;;5.40;0.80;;;23.10;99.90;;;;;;5053042;28;20230;-81
2021/07/26 08:03:29;;;;;;;1.40;1.02;;;23.20;99.90;;;;;;5053161;28;20650;-81
2021/07/26 08:05:59;;;;;;;1.17;0.80;;;23.30;99.90;;;;;;5052844;28;20674;-81
2021/07/26 08:08:26;;;;;;;0.65;0.55;;;23.30;99.90;;;;;;5053124;28;20325;-80
2021/07/26 08:10:52;;;;;;;0.93;0.73;;;23.20;99.90;;;;;;5053069;28;20229;-81
2021/07/26 08:13:21;;;;;;;2.40;0.93;;;23.20;99.90;;;;;;5052839;28;20191;-80
2021/07/26 08:15:50;;;;;;;0.70;0.50;;;23.00;99.90;;;;;;5052773;28;20205;-81
2021/07/26 08:18:17;;;;;;;2.10;0.80;;;22.80;99.90;;;;;;5053023;28;20207;-81
2021/07/26 08:20:44;;;;;;;0.60;0.60;;;22.70;99.90;;;;;;5052556;28;20600;-81
2021/07/26 08:23:11;;;;;;;1.47;1.37;;;22.60;99.90;;;;;;5052714;28;20191;-80
2021/07/26 08:25:38;;;;;;;1.02;0.80;;;22.60;99.90;;;;;;5052632;28;20206;-80
2021/07/26 08:28:05;;;;;;;0.70;0.70;;;22.50;99.90;;;;;;5052707;28;20203;-81
2021/07/26 08:30:35;;;;;;;0.80;0.50;;;22.60;99.90;;;;;;5052563;28;20238;-81
2021/07/26 08:33:02;;;;;;;0.67;0.67;;;22.80;99.90;;;;;;5052862;28;20202;-80
2021/07/26 08:35:29;;;;;;;1.30;0.70;;;23.00;99.90;;;;;;5052893;28;20207;-80
2021/07/26 08:37:56;;;;;;;0.60;0.60;;;23.00;99.90;;;;;;5053308;28;20207;-79
2021/07/26 08:40:26;;;;;;;1.27;0.68;;;23.00;99.90;;;;;;5052455;28;20222;-80
2021/07/26 08:42:53;;;;;;;1.23;0.60;;;23.10;99.90;;;;;;5053660;28;20187;-80
2021/07/26 08:45:20;;;;;;;0.70;0.60;;;23.30;99.90;;;;;;5052772;28;20204;-80
2021/07/26 08:47:49;;;;;;;0.70;0.70;;;23.40;99.90;;;;;;5052753;28;20176;-80
2021/07/26 08:50:18;;;;;;;0.50;0.50;;;23.60;99.90;;;;;;5052365;28;20705;-81
2021/07/26 08:52:45;;;;;;;0.65;0.60;;;23.70;99.90;;;;;;5052697;28;20214;-82
2021/07/26 08:55:14;;;;;;;0.85;0.57;;;24.00;99.90;;;;;;5052412;28;20187;-80
2021/07/26 08:57:42;;;;;;;0.70;0.70;;;24.20;99.90;;;;;;5053581;28;20646;-81
2021/07/26 09:00:10;;;;;;;0.50;0.50;;;24.10;99.90;;;;;;5056196;28;20273;-80
2021/07/26 09:02:37;;;;;;;0.93;0.65;;;24.30;99.90;;;;;;5056221;28;20211;-80
2021/07/26 09:05:08;;;;;;;0.95;0.68;;;24.30;99.90;;;;;;5056211;28;20186;-80
2021/07/26 09:07:38;;;;;;;0.68;0.60;;;24.30;99.90;;;;;;5056222;28;20221;-81
2021/07/26 09:10:13;;;;;;;0.80;0.80;;;24.40;99.90;;;;;;5055696;28;20238;-80
2021/07/26 09:12:40;;;;;;;0.70;0.70;;;24.50;99.90;;;;;;5055770;28;20700;-81
2021/07/26 09:15:22;;;;;;;0.50;0.50;;;24.60;99.90;;;;;;5056027;28;20208;-81
2021/07/26 09:17:49;;;;;;;1.02;0.63;;;24.60;99.90;;;;;;5055993;28;20209;-81
2021/07/26 09:20:19;;;;;;;0.60;0.55;;;24.70;99.90;;;;;;5055648;28;20222;-81
2021/07/26 09:22:47;;;;;;;0.47;0.47;;;24.70;99.90;;;;;;5055867;28;20197;-83
2021/07/26 09:25:21;;;;;;;0.50;0.50;;;24.90;99.90;;;;;;5055871;28;20237;-82
2021/07/26 09:27:59;;;;;;;0.50;0.50;;;24.90;99.90;;;;;;5055843;28;20190;-81
2021/07/26 09:30:27;;;;;;;1.80;0.57;;;24.90;99.90;;;;;;5055663;28;20230;-81
2021/07/26 09:32:54;;;;;;;0.50;0.50;;;24.90;99.90;;;;;;5055667;28;20546;-81
2021/07/26 09:35:25;;;;;;;0.90;0.40;;;24.90;99.90;;;;;;5055637;28;20191;-81
2021/07/26 09:37:59;;;;;;;0.40;0.40;;;24.90;99.90;;;;;;5055586;28;20187;-80
2021/07/26 09:40:30;;;;;;;0.52;0.52;;;25.00;99.90;;;;;;5055389;28;20218;-82
2021/07/26 09:42:57;;;;;;;0.60;0.50;;;25.10;99.90;;;;;;5056815;28;20234;-81
2021/07/26 09:45:25;;;;;;;0.40;0.40;;;25.00;99.90;;;;;;5055497;28;20191;-81
2021/07/26 09:48:08;;;;;;;0.85;0.57;;;25.50;99.90;;;;;;5055234;28;20642;-79
2021/07/26 09:50:37;;;;;;;0.60;0.55;;;25.80;99.90;;;;;;5055418;28;20241;-80
2021/07/26 09:53:11;;;;;;;0.60;0.60;;;25.80;99.90;;;;;;5055392;28;20191;-80
2021/07/26 09:55:41;;;;;;;0.77;0.60;;;25.80;99.90;;;;;;5055110;28;20179;-80
2021/07/26 09:58:09;;;;;;;0.50;0.50;;;25.80;99.90;;;;;;5055258;28;20552;-81
2021/07/26 10:00:37;;;;;;;0.57;0.47;;;25.90;99.90;;;;;;5054783;28;20714;-80
2021/07/26 10:03:06;;;;;;;1.15;0.70;;;26.00;99.90;;;;;;5054872;28;20198;-80
2021/07/26 10:05:34;;;;;;;0.40;0.40;;;26.10;99.90;;;;;;5055269;28;20257;-80
2021/07/26 10:08:03;;;;;;;0.47;0.40;;;26.50;99.90;;;;;;5054455;28;20212;-80
2021/07/26 10:10:30;;;;;;;0.50;0.50;;;26.80;99.90;;;;;;5054559;28;20238;-81
2021/07/26 10:12:58;;;;;;;0.52;0.52;;;27.00;99.90;;;;;;5055073;28;20202;-81
2021/07/26 10:15:27;;;;;;;0.70;0.70;;;27.40;99.90;;;;;;5054955;28;20187;-81
2021/07/26 10:17:54;;;;;;;0.45;0.45;;;27.60;99.90;;;;;;5054928;28;20190;-81
2021/07/26 10:20:23;;;;;;;0.68;0.68;;;27.80;99.90;;;;;;5054869;28;20222;-81
2021/07/26 10:22:53;;;;;;;1.75;0.55;;;27.90;99.90;;;;;;5054709;28;20211;-82
2021/07/26 10:25:31;;;;;;;1.02;0.50;;;27.90;99.90;;;;;;5054501;28;20630;-80
2021/07/26 10:28:00;;;;;;;0.90;0.70;;;27.90;99.70;;;;;;5054412;28;20193;-80
2021/07/26 10:30:35;;;;;;;1.45;0.73;;;27.60;99.90;;;;;;5054305;28;20732;-80
2021/07/26 10:33:02;;;;;;;0.73;0.60;;;27.40;99.90;;;;;;5054275;28;20194;-80
2021/07/26 10:35:40;;;;;;;0.50;0.50;;;27.30;99.90;;;;;;5054522;28;20184;-81
2021/07/26 10:38:09;;;;;;;0.82;0.43;;;27.50;99.90;;;;;;5054217;28;20560;-80
2021/07/26 10:40:41;;;;;;;0.43;0.40;;;27.90;99.90;;;;;;5054388;28;20223;-80
2021/07/26 10:43:16;;;;;;;0.60;0.60;;;28.60;99.90;;;;;;5054341;28;20211;-81
2021/07/26 10:46:03;;;;;;;1.15;0.80;;;29.20;97.20;;;;;;5054957;28;20286;-81
2021/07/26 10:48:34;;;;;;;0.93;0.63;;;29.60;94.70;;;;;;5047683;28;20217;-80
2021/07/26 10:51:01;;;;;;;0.60;0.60;;;29.80;95.30;;;;;;5054175;28;20245;-79
2021/07/26 10:53:57;;;;;;;0.70;0.70;;;30.10;92.30;;;;;;5054212;28;20187;-80
2021/07/26 10:56:25;;;;;;;0.60;0.40;;;30.00;91.80;;;;;;5055000;28;20285;-80
2021/07/26 10:59:04;;;;;;;0.93;0.55;;;29.80;91.50;;;;;;5054097;28;20194;-81
2021/07/26 11:01:59;;;;;;;0.63;0.63;;;29.60;91.30;;;;;;5054524;28;20300;-81
2021/07/26 11:04:43;;;;;;;0.60;0.50;;;29.40;92.40;;;;;;5054133;28;20283;-82
2021/07/26 11:07:12;;;;;;;0.55;0.55;;;29.40;91.70;;;;;;5054349;28;20554;-80
2021/07/26 11:09:43;;;;;;;0.73;0.73;;;29.30;92.10;;;;;;5053500;28;20243;-80
2021/07/26 11:12:11;;;;;;;1.25;0.50;;;29.00;91.30;;;;;;5054120;28;20199;-81
2021/07/26 11:14:38;;;;;;;0.90;0.60;;;28.60;91.70;;;;;;5053789;28;20564;-80
2021/07/26 11:17:07;;;;;;;0.70;0.68;;;28.30;93.40;;;;;;5053780;28;20193;-80
2021/07/26 11:19:36;;;;;;;0.40;0.40;;;27.90;92.90;;;;;;5053377;28;20228;-80
2021/07/26 11:22:04;;;;;;;0.50;0.50;;;27.50;95.10;;;;;;5053101;28;20214;-81
2021/07/26 11:24:44;;;;;;;0.60;0.60;;;27.20;96.40;;;;;;5053719;28;20195;-80
2021/07/26 11:27:13;;;;;;;0.60;0.50;;;26.70;94.60;;;;;;5053722;28;20185;-80
2021/07/26 11:29:42;;;;;;;0.70;0.65;;;26.40;95.00;;;;;;5053548;28;20226;-79
2021/07/26 11:32:09;;;;;;;1.08;0.52;;;26.10;97.70;;;;;;5053775;28;20202;-80
2021/07/26 11:34:36;;;;;;;1.17;0.60;;;25.80;98.90;;;;;;5053486;28;20183;-79
2021/07/26 11:37:07;;;;;;;0.70;0.68;;;25.60;99.90;;;;;;5053546;28;20187;-80
2021/07/26 11:40:04;;;;;;;0.88;0.88;;;25.30;99.90;;;;;;5110995;27;20557;-79
2021/07/26 11:42:32;;;;;;;0.70;0.60;;;25.10;99.90;;;;;;5111382;28;20279;-80
2021/07/26 11:45:01;;;;;;;1.15;0.60;;;24.90;99.90;;;;;;5111280;28;20290;-79
2021/07/26 11:47:33;;;;;;;0.70;0.70;;;24.70;99.90;;;;;;5111984;28;20204;-79
2021/07/26 11:50:00;;;;;;;0.70;0.60;;;24.60;99.90;;;;;;5110924;28;20231;-80
2021/07/26 11:52:27;;;;;;;0.95;0.90;;;24.20;99.90;;;;;;5111231;28;20196;-80
2021/07/26 11:54:53;;;;;;;0.70;0.60;;;23.90;99.90;;;;;;5110949;28;20184;-79
2021/07/26 11:57:22;;;;;;;0.95;0.70;;;23.60;99.90;;;;;;5111203;28;20177;-80
2021/07/26 11:59:49;;;;;;;0.93;0.52;;;23.30;99.90;;;;;;5110935;28;20225;-80
2021/07/26 12:02:24;;;;;;;1.07;0.77;;;23.10;99.90;;;;;;5111065;28;20181;-80
2021/07/26 12:04:51;;;;;;;0.80;0.53;;;22.90;99.90;;;;;;5110660;28;20237;-79
2021/07/26 12:07:38;;;;;;;1.00;0.60;;;22.80;99.90;;;;;;5110934;28;20188;-79
2021/07/26 12:10:05;;;;;;;2.00;0.50;;;22.70;99.90;;;;;;5110766;28;20463;-79
2021/07/26 12:12:37;;;;;;;2.10;1.10;;;22.60;99.90;;;;;;5110801;28;20185;-79
2021/07/26 12:15:23;;;;;;;0.87;0.77;;;22.50;99.90;;;;;;5110467;28;20433;-78
2021/07/26 12:18:02;;;;;;;0.60;0.60;;;22.50;99.90;;;;;;5110692;28;20431;-78
2021/07/26 12:20:29;;;;;;;0.60;0.50;;;22.40;99.90;;;;;;5110503;28;20504;-78
2021/07/26 12:22:56;;;;;;;0.90;0.77;;;22.40;99.90;;;;;;5110637;28;20427;-78
2021/07/26 12:25:25;;;;;;;0.70;0.70;;;22.40;99.90;;;;;;5110622;28;20427;-78
2021/07/26 12:28:01;;;;;;;1.10;0.70;;;22.30;99.90;;;;;;5110266;28;20521;-78
2021/07/26 12:30:36;;;;;;;0.77;0.70;;;22.30;99.90;;;;;;5109989;28;20470;-79
2021/07/26 12:33:03;;;;;;;1.10;0.57;;;22.30;99.90;;;;;;5110217;28;20207;-79
2021/07/26 12:35:30;;;;;;;0.63;0.60;;;22.30;99.90;;;;;;5110052;28;20446;-79
2021/07/26 12:38:08;;;;;;;1.43;0.60;;;22.30;99.90;;;;;;5109871;28;20553;-79
2021/07/26 12:40:36;;;;;;;0.83;0.63;;;22.30;99.90;;;;;;5109810;28;20443;-78
2021/07/26 12:43:10;;;;;;;1.13;0.60;;;22.30;99.90;;;;;;5110129;28;20427;-78
2021/07/26 12:45:38;;;;;;;1.03;0.60;;;22.20;99.90;;;;;;5109717;28;20796;-78
2021/07/26 12:48:16;;;;;;;0.90;0.80;;;22.20;99.90;;;;;;5110831;28;20496;-79
2021/07/26 12:50:44;;;;;;;1.17;0.60;;;22.20;99.90;;;;;;5099597;28;20657;-79
2021/07/26 12:53:11;;;;;;;0.90;0.67;;;22.20;99.90;;;;;;5096101;28;20450;-79
2021/07/26 12:55:39;;;;;;;1.37;1.27;;;22.10;99.90;;;;;;5095148;28;20447;-79